Time;durP1;ratioP1;P1;durP2;ratioP2;P2;SDS_P1;SDS_P2;PMS_P1;PMS_P2;Temp;Humidity;BMP_temperature;BMP_pressure;BME280_temperature;BME280_humidity;BME280_pressure;Samples;Min_cycle;Max_cycle;Signal;HPM_P1;HPM_P2
2024/01/24 04:57:15;;;;;;;1389.40;748.17;;;;;;;0.75;100.00;68582.69;6421797;27;20943;31
2024/01/24 05:00:18;;;;;;;1531.55;860.13;;;;;;;0.95;100.00;68608.38;5377879;33;33874;-86
2024/01/24 05:03:21;;;;;;;1491.38;831.05;;;;;;;0.96;100.00;68664.75;5378347;33;34602;-85
2024/01/24 05:06:24;;;;;;;1515.45;863.22;;;;;;;0.94;100.00;68604.59;5379275;33;33910;-85
2024/01/24 05:09:27;;;;;;;1724.00;888.53;;;;;;;0.94;100.00;68604.00;5379124;33;33839;-85
2024/01/24 05:12:31;;;;;;;1522.47;888.15;;;;;;;0.93;100.00;68660.72;5379284;33;34351;-85
2024/01/24 05:15:34;;;;;;;1511.63;846.87;;;;;;;0.93;100.00;68661.28;5367271;33;33935;-85
2024/01/24 05:18:37;;;;;;;1457.78;795.33;;;;;;;0.91;100.00;68601.16;5379360;33;34731;-86
2024/01/24 05:21:44;;;;;;;1554.82;857.10;;;;;;;0.89;100.00;68657.25;5366404;33;34497;-85
2024/01/24 05:24:51;;;;;;;1451.57;827.72;;;;;;;0.95;100.00;68603.13;5378366;33;34665;-85
2024/01/24 05:27:53;;;;;;;1447.35;826.95;;;;;;;0.95;100.00;68605.19;5377937;33;33985;-86
2024/01/24 05:30:57;;;;;;;1422.38;795.50;;;;;;;0.90;100.00;68658.41;5378885;33;33857;-86
2024/01/24 05:34:03;;;;;;;1471.30;822.25;;;;;;;0.87;100.00;68654.38;5368881;33;34600;-85
2024/01/24 05:37:06;;;;;;;1757.85;942.45;;;;;;;0.88;100.00;68595.06;5382747;33;35410;-85
2024/01/24 05:40:10;;;;;;;1472.43;828.00;;;;;;;0.81;100.00;68587.56;5381386;33;35456;-85
2024/01/24 05:43:13;;;;;;;1413.07;786.33;;;;;;;0.83;100.00;68591.94;5380991;33;34456;-88
2024/01/24 05:46:16;;;;;;;1437.88;797.92;;;;;;;0.86;100.00;68650.59;5380086;33;34968;-90
2024/01/24 05:49:19;;;;;;;1471.38;811.75;;;;;;;1.01;100.00;68610.03;5367146;33;34875;-89
2024/01/24 05:52:22;;;;;;;1398.38;785.05;;;;;;;1.06;100.00;68676.28;5366473;33;33554;-86
2024/01/24 05:55:25;;;;;;;1571.35;865.92;;;;;;;1.19;100.00;68688.06;5382592;33;34003;-86
2024/01/24 05:58:27;;;;;;;1324.30;775.72;;;;;;;1.09;100.00;68621.88;5380387;33;34078;-86
2024/01/24 06:01:30;;;;;;;1383.90;768.47;;;;;;;1.03;100.00;68612.34;5387770;33;34165;-86
2024/01/24 06:04:34;;;;;;;1708.85;909.35;;;;;;;1.07;100.00;68619.00;5375888;33;33829;-86
2024/01/24 06:07:37;;;;;;;1425.85;826.15;;;;;;;1.11;100.00;68626.81;5387751;33;34865;-86
2024/01/24 06:10:41;;;;;;;1405.80;790.25;;;;;;;1.08;100.00;68678.00;5383847;33;34575;-86
2024/01/24 06:13:44;;;;;;;1426.28;788.83;;;;;;;1.04;100.00;68616.13;5395487;33;33894;-85
2024/01/24 06:16:47;;;;;;;1456.00;854.25;;;;;;;1.15;100.00;68686.09;5396935;33;34279;-85
2024/01/24 06:19:51;;;;;;;1375.18;764.15;;;;;;;1.21;100.00;68693.00;5397948;32;34408;-86
2024/01/24 06:22:54;;;;;;;1376.35;786.95;;;;;;;1.33;100.00;68706.28;5390236;33;33798;-86
2024/01/24 06:25:57;;;;;;;1392.50;804.30;;;;;;;1.53;100.00;68670.88;5390885;33;33897;-85
2024/01/24 06:29:01;;;;;;;1403.97;817.85;;;;;;;1.69;100.00;68688.75;5371851;33;33976;-85
2024/01/24 06:32:04;;;;;;;1380.07;787.50;;;;;;;1.75;100.00;68751.53;5396730;33;33881;-85
2024/01/24 06:35:08;;;;;;;1706.38;906.15;;;;;;;1.81;100.00;68705.81;5384998;33;34707;-85
2024/01/24 06:38:11;;;;;;;1423.80;804.50;;;;;;;1.79;100.00;68758.78;5386050;33;33555;-85
2024/01/24 06:41:15;;;;;;;1387.82;805.97;;;;;;;1.96;100.00;68774.63;5409890;33;34474;-85
2024/01/24 06:44:18;;;;;;;1445.75;837.25;;;;;;;2.08;100.00;68735.19;5375176;33;35401;-85
2024/01/24 06:47:22;;;;;;;1338.75;765.62;;;;;;;2.09;100.00;68736.94;5384182;33;33685;-85
2024/01/24 06:50:24;;;;;;;1398.18;797.78;;;;;;;1.95;100.00;68773.47;5384391;33;33675;-85
2024/01/24 06:53:27;;;;;;;1297.38;718.22;;;;;;;1.97;100.00;68720.47;5385615;33;34607;-85
2024/01/24 06:56:30;;;;;;;1312.25;736.15;;;;;;;1.89;100.00;68711.81;5398445;33;33822;-86
2024/01/24 06:59:33;;;;;;;1401.43;815.67;;;;;;;1.79;100.00;68700.28;5385268;33;34667;-85
2024/01/24 07:02:37;;;;;;;1438.20;824.53;;;;;;;1.78;100.00;68699.13;5384600;33;34743;-86
2024/01/24 07:05:41;;;;;;;1402.72;828.97;;;;;;;1.67;100.00;68739.09;5398705;33;33966;-85
2024/01/24 07:08:44;;;;;;;1493.50;835.60;;;;;;;1.68;100.00;68684.97;5398760;33;34125;-85
2024/01/24 07:11:47;;;;;;;1426.28;811.53;;;;;;;1.74;100.00;68753.00;5398559;33;33612;-85
2024/01/24 07:14:50;;;;;;;1410.47;786.38;;;;;;;1.72;100.00;68695.41;5385190;33;34639;-85
2024/01/24 07:17:55;;;;;;;1377.53;761.75;;;;;;;1.73;100.00;68693.94;5382155;33;34020;-85
2024/01/24 07:21:03;;;;;;;1326.13;730.85;;;;;;;1.79;100.00;68755.59;5379166;33;34376;-85
2024/01/24 07:24:06;;;;;;;1294.47;745.28;;;;;;;1.93;100.00;68713.19;5379828;33;33981;-85
2024/01/24 07:27:09;;;;;;;1407.25;820.45;;;;;;;1.85;100.00;68709.25;5366554;33;34048;-85
2024/01/24 07:30:13;;;;;;;1471.15;874.35;;;;;;;1.98;100.00;68774.88;5380219;33;34070;-85
2024/01/24 07:33:16;;;;;;;1691.68;909.03;;;;;;;2.02;100.00;68781.56;5383487;33;33924;-85
2024/01/24 07:36:22;;;;;;;1311.00;746.03;;;;;;;2.10;100.00;68740.16;5391325;33;33921;-85
2024/01/24 07:39:25;;;;;;;1380.63;771.08;;;;;;;2.21;100.00;68806.13;5397215;33;34165;-85
2024/01/24 07:42:29;;;;;;;1408.05;803.47;;;;;;;2.18;100.00;68746.75;5381204;33;34610;-85
2024/01/24 07:45:32;;;;;;;1479.38;785.80;;;;;;;2.46;100.00;68776.41;5391372;33;34495;-85
2024/01/24 07:48:36;;;;;;;1331.35;751.22;;;;;;;2.66;100.00;68800.97;5377649;33;34152;-85
2024/01/24 07:51:41;;;;;;;1383.10;794.35;;;;;;;2.72;100.00;68807.91;5401753;33;34252;-85
2024/01/24 07:54:44;;;;;;;1440.00;821.83;;;;;;;2.71;100.00;68804.09;5393877;33;34834;-88
2024/01/24 07:57:48;;;;;;;1314.30;746.63;;;;;;;2.53;100.00;68839.28;5400432;33;34985;-89
2024/01/24 08:00:51;;;;;;;1696.05;915.22;;;;;;;2.40;100.00;68769.50;5384916;33;34204;-89
2024/01/24 08:03:54;;;;;;;1339.30;748.80;;;;;;;2.41;100.00;68768.00;5372848;33;34075;-85
2024/01/24 08:06:58;;;;;;;1398.15;759.33;;;;;;;2.37;100.00;68818.75;5372936;33;34081;-86
2024/01/24 08:10:01;;;;;;;1355.18;773.33;;;;;;;2.32;100.00;68759.69;5384849;33;33606;-85
2024/01/24 08:13:04;;;;;;;1352.28;764.22;;;;;;;2.39;100.00;68770.97;5371928;33;33788;-85
2024/01/24 08:16:07;;;;;;;1414.97;799.85;;;;;;;2.22;100.00;68804.66;5384420;33;33772;-85
2024/01/24 08:19:10;;;;;;;1349.07;793.90;;;;;;;2.28;100.00;68810.97;5397801;33;33654;-85
2024/01/24 08:22:14;;;;;;;1681.05;880.35;;;;;;;2.10;100.00;68734.88;5383536;33;34021;-85
2024/01/24 08:25:17;;;;;;;1393.30;775.12;;;;;;;2.15;100.00;68798.63;5397462;33;33993;-85
2024/01/24 08:28:20;;;;;;;1322.47;728.58;;;;;;;2.03;100.00;68785.34;5371946;33;33755;-85
2024/01/24 08:31:22;;;;;;;1353.95;741.10;;;;;;;1.99;100.00;68725.97;5382599;33;33888;-85
2024/01/24 08:34:28;;;;;;;1341.75;768.40;;;;;;;2.06;100.00;68730.84;5397231;33;34581;-84
2024/01/24 08:37:31;;;;;;;1384.53;796.60;;;;;;;1.97;100.00;68721.03;5408916;32;33569;-85
2024/01/24 08:40:34;;;;;;;1491.62;832.97;;;;;;;1.89;100.00;68767.13;5390590;32;35167;-85
2024/01/24 08:43:37;;;;;;;1415.35;784.28;;;;;;;1.97;100.00;68720.47;5398819;33;34303;-85
2024/01/24 08:46:40;;;;;;;1435.47;818.28;;;;;;;1.94;100.00;68770.25;5398843;33;33691;-85
2024/01/24 08:49:43;;;;;;;1475.82;822.47;;;;;;;1.99;100.00;68725.38;5371734;33;34489;-85
2024/01/24 08:52:46;;;;;;;1415.38;792.10;;;;;;;1.97;100.00;68721.03;5379504;33;34017;-85
2024/01/24 08:55:49;;;;;;;1375.10;761.15;;;;;;;2.08;100.00;68730.53;5397297;33;33768;-85
2024/01/24 08:58:52;;;;;;;1475.72;832.97;;;;;;;2.08;100.00;68735.78;5396332;33;35009;-85
2024/01/24 09:01:56;;;;;;;1488.75;857.78;;;;;;;2.20;100.00;68749.06;5382763;33;33847;-85
2024/01/24 09:05:02;;;;;;;1559.90;875.22;;;;;;;2.24;100.00;68809.59;5384580;33;33995;-86
2024/01/24 09:08:05;;;;;;;1501.28;873.38;;;;;;;2.23;100.00;68750.47;5382568;33;33654;-87
2024/01/24 09:11:10;;;;;;;1356.60;779.12;;;;;;;2.18;100.00;68746.75;5380765;32;33338;-87
2024/01/24 09:14:12;;;;;;;1999.90;529.47;;;;;;;2.18;100.00;68802.66;5390478;32;34603;-90
2024/01/24 09:17:17;;;;;;;1999.90;627.88;;;;;;;2.15;100.00;68798.63;5384381;32;33872;-88
2024/01/24 09:20:22;;;;;;;1999.90;617.50;;;;;;;2.12;100.00;68795.72;5384530;33;34031;-87
2024/01/24 09:23:26;;;;;;;1999.90;571.08;;;;;;;2.14;100.00;68739.50;5381374;33;34940;-88
2024/01/24 09:26:29;;;;;;;1999.90;708.92;;;;;;;2.10;100.00;68734.88;5395911;32;34037;-88
2024/01/24 09:29:32;;;;;;;1999.90;638.58;;;;;;;2.19;100.00;68751.09;5383658;33;34325;-88
2024/01/24 09:32:35;;;;;;;1999.90;587.58;;;;;;;2.27;100.00;68812.47;5384928;33;35037;-89
2024/01/24 09:35:40;;;;;;;1999.90;651.35;;;;;;;2.24;100.00;68809.59;5396042;33;33792;-88
2024/01/24 09:38:46;;;;;;;1999.90;718.90;;;;;;;2.28;100.00;68753.00;5376454;33;33870;-87
2024/01/24 09:41:51;;;;;;;1999.90;680.78;;;;;;;2.40;100.00;68769.50;5384723;33;33855;-88
2024/01/24 09:44:57;;;;;;;1999.90;637.88;;;;;;;2.48;100.00;68834.06;5402080;32;33939;-88
2024/01/24 09:48:01;;;;;;;1999.90;674.92;;;;;;;2.61;100.00;68847.97;5406798;32;33848;-88
2024/01/24 09:51:04;;;;;;;1999.90;671.63;;;;;;;2.70;100.00;68861.56;5377684;33;34370;-87
2024/01/24 09:54:09;;;;;;;1999.90;756.55;;;;;;;2.73;100.00;68865.03;5399000;33;34150;-87
2024/01/24 09:57:16;;;;;;;1999.90;663.45;;;;;;;2.85;100.00;68817.63;5407019;32;33275;-89
2024/01/24 10:00:21;;;;;;;1999.90;654.97;;;;;;;2.97;100.00;68832.97;5362343;33;33911;-92
2024/01/24 10:03:25;;;;;;;1999.90;619.40;;;;;;;3.04;100.00;68839.00;5397904;32;33778;-92
2024/01/24 10:06:29;;;;;;;1999.90;687.20;;;;;;;3.06;100.00;68846.56;5384571;33;34118;-88
2024/01/24 10:09:48;;;;;;;1999.90;584.22;;;;;;;3.09;100.00;68846.81;5413941;32;33682;-90
2024/01/24 10:12:56;;;;;;;1999.90;711.92;;;;;;;3.24;100.00;68921.63;5387091;33;33993;-89
2024/01/24 10:15:59;;;;;;;1999.90;689.83;;;;;;;3.36;100.00;68877.41;5403616;33;34040;-86
2024/01/24 10:19:04;;;;;;;1999.90;679.95;;;;;;;3.45;100.00;68887.81;5382041;33;147952;-86
2024/01/24 10:22:07;;;;;;;1999.90;694.05;;;;;;;3.56;100.00;68900.53;5397261;33;33479;-87
2024/01/24 10:25:13;;;;;;;1999.90;634.10;;;;;;;3.50;100.00;68951.13;5383590;33;34998;-87
2024/01/24 10:28:17;;;;;;;1999.90;638.55;;;;;;;3.67;100.00;68915.31;5384068;33;35084;-87
2024/01/24 10:31:20;;;;;;;1999.90;739.85;;;;;;;3.76;100.00;68923.06;5383602;33;32968;-87
2024/01/24 10:34:27;;;;;;;1999.90;619.55;;;;;;;3.75;100.00;68979.44;5382475;33;33719;-87
2024/01/24 10:37:34;;;;;;;1999.90;574.97;;;;;;;3.80;100.00;68927.09;5400537;33;34130;-87
2024/01/24 10:40:40;;;;;;;1999.90;566.78;;;;;;;3.85;100.00;68991.00;5382828;33;35138;-86
2024/01/24 10:43:54;;;;;;;1999.90;741.90;;;;;;;3.81;100.00;68986.97;5395834;33;33873;-86
2024/01/24 10:46:57;;;;;;;1999.90;721.85;;;;;;;3.93;100.00;68944.19;5386099;33;34732;-86
2024/01/24 10:50:06;;;;;;;1999.90;640.42;;;;;;;3.98;100.00;68947.31;5382169;33;33597;-87
2024/01/24 10:53:09;;;;;;;1999.90;651.50;;;;;;;4.07;100.00;68957.72;5395539;32;34418;-86
2024/01/24 10:56:17;;;;;;;1999.90;660.05;;;;;;;4.02;100.00;68955.16;5395660;33;33932;-86
2024/01/24 10:59:20;;;;;;;1999.90;638.00;;;;;;;3.93;100.00;68942.13;5390332;32;33765;-85
2024/01/24 11:02:26;;;;;;;1999.90;627.55;;;;;;;3.98;100.00;69005.47;5414788;32;33959;-86
2024/01/24 11:05:39;;;;;;;1999.90;591.62;;;;;;;3.99;100.00;69007.19;5370783;33;33664;-85
2024/01/24 11:08:48;;;;;;;1999.90;602.55;;;;;;;4.05;100.00;68960.69;5395509;33;34077;-86
2024/01/24 11:11:57;;;;;;;1999.90;783.33;;;;;;;4.05;100.00;69010.91;5391143;33;33948;-86
2024/01/24 11:15:08;;;;;;;1999.90;625.08;;;;;;;4.04;100.00;68954.25;5391518;33;34199;-90
2024/01/24 11:18:33;;;;;;;1999.90;651.60;;;;;;;4.14;100.00;68967.88;5382665;33;33590;-86
2024/01/24 11:21:37;;;;;;;1999.90;586.58;;;;;;;4.23;100.00;69033.81;5386426;33;33119;-85
2024/01/24 11:24:40;;;;;;;1999.90;699.22;;;;;;;4.23;100.00;68976.22;5389496;33;34435;-86
2024/01/24 11:27:44;;;;;;;1999.90;631.65;;;;;;;4.25;100.00;69036.69;5398643;32;32239;-86
2024/01/24 11:30:48;;;;;;;1999.90;576.40;;;;;;;4.31;100.00;68985.47;5390874;32;34266;-86
2024/01/24 11:34:14;;;;;;;1999.90;632.22;;;;;;;4.40;100.00;69052.91;5370102;33;33656;-86
2024/01/24 11:37:17;;;;;;;1999.90;645.97;;;;;;;4.35;100.00;68991.56;5390781;32;34015;-85
2024/01/24 11:40:23;;;;;;;1999.90;602.78;;;;;;;4.31;100.00;68988.09;5402981;33;34243;-86
2024/01/24 11:43:32;;;;;;;1999.90;610.17;;;;;;;4.39;100.00;69052.31;5385637;33;33969;-86
2024/01/24 11:46:41;;;;;;;1999.90;659.45;;;;;;;4.37;100.00;68994.47;5400386;33;32976;-86
2024/01/24 11:49:48;;;;;;;1999.90;628.92;;;;;;;4.31;100.00;69040.41;5391000;32;34820;-86
2024/01/24 11:52:59;;;;;;;1999.90;661.55;;;;;;;4.26;100.00;68979.69;5382166;33;34639;-86
2024/01/24 11:56:11;;;;;;;1999.90;999.90;;;;;;;4.35;100.00;68989.50;5373695;33;34509;-86
2024/01/24 11:59:14;;;;;;;1999.90;615.95;;;;;;;4.32;100.00;69046.84;5400674;33;34052;-85
2024/01/24 12:02:17;;;;;;;1999.90;629.65;;;;;;;4.26;100.00;68979.69;5408882;32;34128;-86
2024/01/24 12:05:20;;;;;;;1999.90;681.83;;;;;;;4.23;100.00;68975.63;5392216;32;33576;-85
2024/01/24 12:08:23;;;;;;;1999.90;652.78;;;;;;;4.26;100.00;68982.31;5405318;32;33720;-86
2024/01/24 12:11:26;;;;;;;1999.90;592.95;;;;;;;4.09;100.00;68963.25;5418742;32;34049;-85
2024/01/24 12:14:30;;;;;;;1999.90;627.03;;;;;;;4.18;100.00;69028.59;5404821;32;34771;-85
2024/01/24 12:17:35;;;;;;;1999.90;600.42;;;;;;;4.15;100.00;68966.97;5375163;33;33916;-85
2024/01/24 12:20:47;;;;;;;1999.90;680.72;;;;;;;4.24;100.00;68977.38;5380757;33;34093;-85
2024/01/24 12:23:51;;;;;;;1999.90;732.40;;;;;;;4.17;100.00;68968.69;5392843;33;34080;-89
2024/01/24 12:26:54;;;;;;;1999.90;708.55;;;;;;;4.03;100.00;68956.31;5385779;33;34089;-89
2024/01/24 12:30:00;;;;;;;1999.90;602.28;;;;;;;3.98;100.00;68947.91;5373234;33;33557;-86
2024/01/24 12:33:04;;;;;;;1999.90;643.78;;;;;;;3.93;100.00;68944.19;5397458;33;34140;-86
2024/01/24 12:36:10;;;;;;;1999.90;595.40;;;;;;;3.97;100.00;68949.38;5385028;33;34243;-86
2024/01/24 12:39:13;;;;;;;1999.90;619.10;;;;;;;3.90;100.00;68938.09;5407809;33;35330;-86
2024/01/24 12:42:16;;;;;;;1999.90;648.47;;;;;;;3.89;100.00;68936.91;5404795;33;34389;-85
2024/01/24 12:45:19;;;;;;;1999.90;605.65;;;;;;;3.97;100.00;68951.44;5399808;32;34746;-86
2024/01/24 12:48:23;;;;;;;1999.90;617.83;;;;;;;3.95;100.00;68999.34;5401124;32;33567;-85
2024/01/24 12:51:27;;;;;;;1999.90;596.42;;;;;;;3.91;100.00;68942.44;5390403;32;34456;-86
2024/01/24 12:54:31;;;;;;;1999.90;697.30;;;;;;;4.01;100.00;69008.94;5386290;33;34996;-85
2024/01/24 12:57:35;;;;;;;1999.90;645.20;;;;;;;4.06;100.00;69014.72;5372178;33;34028;-85
2024/01/24 13:00:38;;;;;;;1999.90;623.15;;;;;;;3.97;100.00;68946.16;5388993;33;33728;-86
2024/01/24 13:03:42;;;;;;;1999.90;642.37;;;;;;;4.04;100.00;69010.34;5390907;33;35180;-85
2024/01/24 13:06:46;;;;;;;1999.90;598.70;;;;;;;4.13;100.00;68964.09;5378979;33;33894;-85
2024/01/24 13:09:49;;;;;;;1999.90;566.35;;;;;;;4.16;100.00;68970.78;5372315;33;35086;-86
2024/01/24 13:12:59;;;;;;;;;;;;;;;4.08;100.00;68961.53;5378320;33;33888;-85
2024/01/24 13:16:02;;;;;;;1999.90;743.55;;;;;;;4.03;100.00;69011.81;5373466;33;34471;-86
2024/01/24 13:19:06;;;;;;;1999.90;604.17;;;;;;;3.91;100.00;68942.44;5378605;33;33983;-86
2024/01/24 13:22:09;;;;;;;1999.90;585.33;;;;;;;3.92;100.00;68940.97;5366185;33;33569;-85
2024/01/24 13:25:12;;;;;;;1999.90;692.20;;;;;;;3.95;100.00;68947.09;5365989;33;34511;-86
2024/01/24 13:28:16;;;;;;;1999.90;628.83;;;;;;;3.90;100.00;68996.78;5367141;33;34782;-85
2024/01/24 13:31:19;;;;;;;1999.90;667.10;;;;;;;3.85;100.00;68932.88;5355414;33;34248;-85
2024/01/24 13:34:22;;;;;;;1999.90;731.00;;;;;;;3.85;100.00;68936.09;5385146;33;34158;-85
2024/01/24 13:37:25;;;;;;;1999.90;648.15;;;;;;;3.75;100.00;68921.91;5367852;33;35491;-85
2024/01/24 13:40:30;;;;;;;1999.90;616.88;;;;;;;3.69;100.00;68914.41;5398741;32;34956;-85
2024/01/24 13:43:33;;;;;;;1999.90;655.28;;;;;;;3.66;100.00;68914.16;5378368;33;34179;-84
2024/01/24 13:46:37;;;;;;;1999.90;598.65;;;;;;;3.66;100.00;68966.38;5383964;33;34875;-83
2024/01/24 13:49:43;;;;;;;1999.90;584.00;;;;;;;3.66;100.00;68971.66;5398292;33;33663;-83
2024/01/24 13:52:46;;;;;;;1999.90;633.20;;;;;;;3.71;100.00;68916.69;5396411;33;34629;-83
2024/01/24 13:55:49;;;;;;;1999.90;707.45;;;;;;;3.69;100.00;68917.03;5378976;33;34848;-84
2024/01/24 13:58:53;;;;;;;1999.90;624.25;;;;;;;3.64;100.00;68912.41;5392191;33;34152;-83
2024/01/24 14:01:56;;;;;;;1999.90;624.85;;;;;;;3.72;100.00;68918.44;5408186;32;34064;-85
2024/01/24 14:05:04;;;;;;;1999.90;672.45;;;;;;;3.81;100.00;68986.38;5382476;33;33920;-84
2024/01/24 14:08:07;;;;;;;1999.90;711.83;;;;;;;3.78;100.00;68980.28;5371078;33;33570;-86
2024/01/24 14:11:11;;;;;;;1999.90;635.13;;;;;;;3.86;100.00;68937.25;5414884;32;33826;-85
2024/01/24 14:14:13;;;;;;;1999.90;703.90;;;;;;;4.02;100.00;69010.09;5393875;32;33935;-86
2024/01/24 14:17:17;;;;;;;1999.90;725.78;;;;;;;4.11;100.00;69019.94;5395549;32;34453;-85
2024/01/24 14:20:20;;;;;;;1999.90;726.42;;;;;;;4.31;100.00;68985.47;5381451;32;35058;-88
2024/01/24 14:23:24;;;;;;;1999.90;695.40;;;;;;;4.40;100.00;68994.72;5370992;32;35032;-91
2024/01/24 14:26:30;;;;;;;1999.90;642.97;;;;;;;4.41;100.00;68995.88;5384040;32;34634;-90
2024/01/24 14:29:33;;;;;;;1999.90;632.10;;;;;;;4.20;100.00;68974.81;5385296;33;33605;-86
2024/01/24 14:32:40;;;;;;;1999.90;732.58;;;;;;;4.16;100.00;68970.78;5381931;32;33544;-85
2024/01/24 14:35:45;;;;;;;1999.90;672.97;;;;;;;4.20;100.00;69030.34;5392225;33;32625;-85
2024/01/24 14:38:48;;;;;;;1999.90;679.38;;;;;;;4.06;100.00;69014.72;5380668;32;34468;-85
2024/01/24 14:41:54;;;;;;;1999.90;644.45;;;;;;;4.07;100.00;69016.47;5377362;32;34576;-85
2024/01/24 14:44:58;;;;;;;1999.90;717.15;;;;;;;4.02;100.00;68952.53;5383817;33;34699;-85
2024/01/24 14:48:02;;;;;;;1999.90;631.03;;;;;;;4.05;100.00;69010.91;5392229;32;34117;-85
2024/01/24 14:51:06;;;;;;;1999.90;636.55;;;;;;;4.06;100.00;68959.78;5388809;33;34901;-86
2024/01/24 14:54:09;;;;;;;1999.90;573.05;;;;;;;4.08;100.00;68958.88;5383113;33;34604;-85
2024/01/24 14:57:12;;;;;;;1999.90;561.78;;;;;;;4.05;100.00;68955.97;5384640;32;34040;-86
2024/01/24 15:00:19;;;;;;;1999.90;562.03;;;;;;;3.97;100.00;68946.16;5390464;33;34046;-85
2024/01/24 15:03:23;;;;;;;1999.90;624.20;;;;;;;4.03;100.00;69011.25;5385890;33;33689;-85
2024/01/24 15:06:26;;;;;;;1999.90;658.67;;;;;;;3.96;100.00;69003.72;5397732;33;34643;-85
2024/01/24 15:09:29;;;;;;;1999.90;618.95;;;;;;;3.97;100.00;69001.66;5385137;33;33985;-86
2024/01/24 15:12:36;;;;;;;1999.90;627.58;;;;;;;3.99;100.00;68948.47;5385697;33;33650;-85
2024/01/24 15:15:40;;;;;;;1999.90;699.05;;;;;;;3.96;100.00;69003.72;5384702;33;34688;-86
2024/01/24 15:18:43;;;;;;;1999.90;672.87;;;;;;;3.99;100.00;68949.06;5398252;33;35103;-86
2024/01/24 15:21:46;;;;;;;1999.90;733.75;;;;;;;3.99;100.00;68948.47;5370119;32;33961;-85
2024/01/24 15:24:55;;;;;;;1999.90;701.90;;;;;;;4.00;100.00;68950.19;5388136;32;33619;-86
2024/01/24 15:27:58;;;;;;;1999.90;714.08;;;;;;;4.05;100.00;69010.91;5411527;32;33597;-85
2024/01/24 15:31:01;;;;;;;1999.90;647.40;;;;;;;4.09;100.00;68963.25;5406788;32;35424;-85
2024/01/24 15:34:04;;;;;;;1999.90;640.62;;;;;;;4.07;100.00;68958.31;5394845;33;34115;-85
2024/01/24 15:37:10;;;;;;;1999.90;658.10;;;;;;;4.17;100.00;69026.88;5385075;32;33961;-85
2024/01/24 15:40:16;;;;;;;1999.90;671.65;;;;;;;4.23;100.00;68980.91;5399487;33;34796;-85
2024/01/24 15:43:21;;;;;;;1999.90;630.70;;;;;;;4.36;100.00;69048.84;5400558;33;34021;-85
2024/01/24 15:46:24;;;;;;;1999.90;686.80;;;;;;;4.45;100.00;69003.16;5407633;32;34315;-85
2024/01/24 15:49:28;;;;;;;1999.90;684.97;;;;;;;4.66;100.00;69082.41;5398402;32;34117;-85
2024/01/24 15:52:31;;;;;;;1999.90;620.17;;;;;;;4.57;100.00;69017.00;5398249;33;34602;-86
2024/01/24 15:55:37;;;;;;;1999.90;657.67;;;;;;;4.55;100.00;69070.81;5372569;33;34763;-85
2024/01/24 15:58:40;;;;;;;1999.90;633.38;;;;;;;4.48;100.00;69004.53;5397118;33;34253;-86
2024/01/24 16:01:49;;;;;;;1999.90;645.45;;;;;;;4.43;100.00;68998.19;5374980;33;33640;-86
2024/01/24 16:04:53;;;;;;;1999.90;631.28;;;;;;;4.38;100.00;69047.94;5396268;33;34113;-85
2024/01/24 16:07:56;;;;;;;1999.90;652.00;;;;;;;4.51;100.00;69008.00;5375832;33;34011;-89
2024/01/24 16:10:59;;;;;;;1999.90;666.20;;;;;;;4.60;100.00;69017.25;5389953;33;34249;-89
2024/01/24 16:14:03;;;;;;;1999.90;617.58;;;;;;;4.73;100.00;69035.50;5386191;33;34117;-90
2024/01/24 16:17:12;;;;;;;1999.90;662.67;;;;;;;4.88;100.00;69051.69;5375393;33;33894;-85
2024/01/24 16:20:15;;;;;;;1999.90;623.60;;;;;;;5.00;100.00;69062.91;5398406;33;33957;-85
2024/01/24 16:23:18;;;;;;;1999.90;589.03;;;;;;;4.97;100.00;69059.44;5385407;33;34523;-85
2024/01/24 16:26:20;;;;;;;1999.90;599.50;;;;;;;5.03;100.00;69066.41;5397702;33;33929;-85
2024/01/24 16:29:24;;;;;;;1999.90;636.45;;;;;;;4.98;100.00;69065.91;5396352;33;33584;-86
2024/01/24 16:32:26;;;;;;;1999.90;603.90;;;;;;;5.02;100.00;69064.66;5396824;33;34570;-85
2024/01/24 16:35:32;;;;;;;1999.90;629.38;;;;;;;4.87;100.00;69106.69;5396141;33;33906;-85
2024/01/24 16:38:35;;;;;;;1999.90;610.20;;;;;;;4.67;100.00;69083.56;5396104;33;34698;-85
2024/01/24 16:41:38;;;;;;;1999.90;666.62;;;;;;;4.43;100.00;69056.38;5384592;33;34186;-85
2024/01/24 16:44:41;;;;;;;1999.90;605.92;;;;;;;4.31;100.00;69043.06;5407745;33;34524;-85
2024/01/24 16:47:45;;;;;;;1983.00;550.30;;;;;;;4.23;100.00;69034.38;5386588;33;34010;-85
2024/01/24 16:50:48;;;;;;;1999.90;608.97;;;;;;;4.14;100.00;68968.44;5384561;33;33795;-85
2024/01/24 16:53:55;;;;;;;1999.90;633.75;;;;;;;4.16;100.00;68970.78;5396293;33;34575;-85
2024/01/24 16:57:00;;;;;;;1999.90;604.12;;;;;;;4.19;100.00;68968.94;5396122;33;33884;-85
2024/01/24 17:00:04;;;;;;;1999.90;581.63;;;;;;;4.12;100.00;68963.50;5414344;32;33535;-85
